Airfield :
LOGIN :

Register | Disclaimer

   EN    FR    IT 

 










Legend :    VFR   Marginal VFR   IFR   Intensive IFR   Very Intensive IFR
Visi :
Ceiling :
>= 8 km
>= 3000ft
5 to 8 km
1000 to 3000 ft
1500m to 5 km
500 to 1000 ft
800 to 1500m
200 to 500 ft
< 800m
< 200 ft
Symbols :   Thunderstorms  Fog  Heavy snow  Heavy precipitations  Wind > 20 kt
SIGMETs :     Misc.  Thunderstorms  Icing  Turbulence  Mountain Waves  Volcanic Ashes







- Airport Elevation : 242 ft
- IATA code : DUB


EIDW - Dublin

CURRENT METAR :
  • 191630Z 22010KT 9999 FEW027 SCT042 BKN120 17/11 Q1017 NOSIG

EXPIRED METARs :
  • 191600Z 22013KT 9999 FEW027 BKN038 BKN170 17/10 Q1017 NOSIG
  • 191530Z 22010KT 180V240 9999 FEW027 BKN035 BKN170 18/10 Q1018 NOSIG
  • 191500Z 24009KT 180V260 9999 FEW027 SCT035 BKN170 18/10 Q1018 NOSIG
  • 191430Z 21008KT 9999 FEW027 SCT180 BKN300 18/10 Q1018 NOSIG
  • 191400Z 23008KT 190V260 9999 FEW027 SCT180 BKN300 18/10 Q1018 NOSIG

TAF AMD TAF EIDW
Valid from the 19 at 12:00 until the 20 at 12:00 UTC


191246Z 1912/2012 21008KT 9999 FEW020 BKN040
BECMG 1913/1916 17008KT
PROB30
TEMPO 1919/1921 -RA BKN015
TEMPO 2008/2012 5000 -RA SCT006 BKN012
BECMG 2009/2011 15011KT
No reported NOTAMs for that airfield.



MET'MAP, your aeronautical weather chart ! - Copyright ORBIFLY December 2007 - Disclaimer

ORBIFLY MET'MAP TEAM :

Programming & Development : Alexandra Zaïnal
Concept & Development : Baudouin d'Aumeries
Co-Development & Prog : Marc-Olivier Méhu
Technical & hardware support : Manuel Goepfert

Contact : metmap@orbifly.com




SOURCES & CREDITS :

   NOAA